KSLO/SLO METAR and TAF weather

Enter ICAO airport designator
Station Type Date Time Source
KSLO METAR 2020/10/22 03:55 UTC NOAA

KSLO 220355Z AUTO 00000KT 3/4SM BR OVC003 15/14 A3011 RMK AO2 LTG DSNT N AND NW T01450140


Station Type Date Time Source
KSLO Decoded METAR 2020/10/22 03:55 UTC NOAA

Salem, Salem-Leckrone Airport, IL, United States (KSLO) 38-38-34N 088-57-51W 174M
Oct 21, 2020 - 11:55 PM EDT / 2020.10.22 0355 UTC
Wind: Calm:0
Visibility: 3/4 mile(s):0
Sky conditions: overcast
Weather: mist; Lightning observed
Temperature: 58.1 F (14.5 C)
Dew Point: 57.2 F (14.0 C)
Relative Humidity: 96%
Pressure (altimeter): 30.11 in. Hg (1019 hPa)
ob: KSLO 220355Z AUTO 00000KT 3/4SM BR OVC003 15/14 A3011 RMK AO2 LTG DSNT N AND NW T01450140
cycle: 4

Station Type Date Time Source
KSLO TAF UTC NOAA

Error!

Example: see airport list